sensor_id;sensor_type;location;lat;lon;timestamp;pressure;altitude;pressure_sealevel;temperature;humidity
10462;BME280;5278;42.656;23.374;2024-02-23T00:01:23;94356.66;;;8.48;75.06
10462;BME280;5278;42.656;23.374;2024-02-23T00:03:50;94359.59;;;8.45;75.86
10462;BME280;5278;42.656;23.374;2024-02-23T00:06:17;94363.66;;;8.39;75.78
10462;BME280;5278;42.656;23.374;2024-02-23T00:08:45;94370.13;;;8.27;76.36
10462;BME280;5278;42.656;23.374;2024-02-23T00:11:12;94363.66;;;8.23;76.32
10462;BME280;5278;42.656;23.374;2024-02-23T00:13:38;94360.78;;;8.26;76.72
10462;BME280;5278;42.656;23.374;2024-02-23T00:16:05;94360.56;;;8.28;76.57
10462;BME280;5278;42.656;23.374;2024-02-23T00:18:32;94374.19;;;8.30;76.32
10462;BME280;5278;42.656;23.374;2024-02-23T00:20:59;94368.53;;;8.26;76.20
10462;BME280;5278;42.656;23.374;2024-02-23T00:23:26;94367.38;;;8.29;76.32
10462;BME280;5278;42.656;23.374;2024-02-23T00:25:55;94368.06;;;8.31;76.11
10462;BME280;5278;42.656;23.374;2024-02-23T00:28:22;94364.94;;;8.27;75.96
10462;BME280;5278;42.656;23.374;2024-02-23T00:30:48;94350.56;;;8.25;75.69
10462;BME280;5278;42.656;23.374;2024-02-23T00:33:16;94356.22;;;8.28;75.47
10462;BME280;5278;42.656;23.374;2024-02-23T00:35:43;94352.66;;;8.29;75.07
10462;BME280;5278;42.656;23.374;2024-02-23T00:38:09;94349.75;;;8.24;75.11
10462;BME280;5278;42.656;23.374;2024-02-23T00:40:36;94350.41;;;8.26;74.94
10462;BME280;5278;42.656;23.374;2024-02-23T00:43:04;94359.94;;;8.34;74.70
10462;BME280;5278;42.656;23.374;2024-02-23T00:45:31;94226.50;;;7.61;74.62
10462;BME280;5278;42.656;23.374;2024-02-23T00:47:58;94286.66;;;7.94;74.58
10462;BME280;5278;42.656;23.374;2024-02-23T00:50:25;94332.63;;;8.23;75.47
10462;BME280;5278;42.656;23.374;2024-02-23T00:52:52;94337.03;;;8.14;75.27
10462;BME280;5278;42.656;23.374;2024-02-23T00:55:19;94334.59;;;8.13;75.46
10462;BME280;5278;42.656;23.374;2024-02-23T00:57:46;94335.41;;;8.13;75.42
10462;BME280;5278;42.656;23.374;2024-02-23T01:00:14;94333.97;;;8.11;75.00
10462;BME280;5278;42.656;23.374;2024-02-23T01:02:41;94326.22;;;8.11;75.33
10462;BME280;5278;42.656;23.374;2024-02-23T01:05:08;94335.88;;;8.17;75.17
10462;BME280;5278;42.656;23.374;2024-02-23T01:07:36;94335.06;;;8.25;74.98
10462;BME280;5278;42.656;23.374;2024-02-23T01:10:03;94325.34;;;8.27;74.97
10462;BME280;5278;42.656;23.374;2024-02-23T01:12:30;94313.91;;;8.13;75.12
10462;BME280;5278;42.656;23.374;2024-02-23T01:14:56;94336.06;;;8.15;75.16
10462;BME280;5278;42.656;23.374;2024-02-23T01:17:24;94319.06;;;8.13;75.39
10462;BME280;5278;42.656;23.374;2024-02-23T01:19:51;94309.53;;;8.21;75.50
10462;BME280;5278;42.656;23.374;2024-02-23T01:22:18;94317.28;;;8.13;75.68
10462;BME280;5278;42.656;23.374;2024-02-23T01:24:45;94338.84;;;8.06;75.67
10462;BME280;5278;42.656;23.374;2024-02-23T01:27:11;94331.38;;;8.03;75.60
10462;BME280;5278;42.656;23.374;2024-02-23T01:29:38;94324.75;;;8.08;75.85
10462;BME280;5278;42.656;23.374;2024-02-23T01:32:05;94319.72;;;8.15;75.75
10462;BME280;5278;42.656;23.374;2024-02-23T01:34:33;94309.38;;;8.15;75.72
10462;BME280;5278;42.656;23.374;2024-02-23T01:37:00;94306.13;;;8.13;75.49
10462;BME280;5278;42.656;23.374;2024-02-23T01:39:28;94303.84;;;8.18;76.29
10462;BME280;5278;42.656;23.374;2024-02-23T01:41:54;94300.28;;;8.19;75.54
10462;BME280;5278;42.656;23.374;2024-02-23T01:44:21;94299.50;;;8.18;75.61
10462;BME280;5278;42.656;23.374;2024-02-23T01:46:48;94298.00;;;8.24;75.27
10462;BME280;5278;42.656;23.374;2024-02-23T01:49:16;94307.75;;;8.14;75.82
10462;BME280;5278;42.656;23.374;2024-02-23T01:51:44;94308.56;;;8.14;75.97
10462;BME280;5278;42.656;23.374;2024-02-23T01:54:11;94288.69;;;8.15;74.89
10462;BME280;5278;42.656;23.374;2024-02-23T01:56:38;94291.22;;;8.23;74.86
10462;BME280;5278;42.656;23.374;2024-02-23T01:59:06;94297.88;;;8.17;74.91
10462;BME280;5278;42.656;23.374;2024-02-23T02:01:32;94295.94;;;8.19;75.55
10462;BME280;5278;42.656;23.374;2024-02-23T02:03:59;94283.16;;;8.18;75.57
10462;BME280;5278;42.656;23.374;2024-02-23T02:06:28;94282.66;;;8.22;74.71
10462;BME280;5278;42.656;23.374;2024-02-23T02:08:56;94269.81;;;8.06;75.27
10462;BME280;5278;42.656;23.374;2024-02-23T02:11:23;94273.56;;;7.96;75.98
10462;BME280;5278;42.656;23.374;2024-02-23T02:13:50;94275.47;;;8.02;76.26
10462;BME280;5278;42.656;23.374;2024-02-23T02:16:16;94165.47;;;7.44;75.98
10462;BME280;5278;42.656;23.374;2024-02-23T02:18:43;94278.31;;;8.15;75.76
10462;BME280;5278;42.656;23.374;2024-02-23T02:21:11;94281.22;;;8.12;75.81
10462;BME280;5278;42.656;23.374;2024-02-23T02:23:38;94300.34;;;8.11;75.94
10462;BME280;5278;42.656;23.374;2024-02-23T02:26:07;94273.81;;;8.09;75.92
10462;BME280;5278;42.656;23.374;2024-02-23T02:28:33;94280.41;;;8.19;75.72
10462;BME280;5278;42.656;23.374;2024-02-23T02:31:00;94273.78;;;8.17;75.57
10462;BME280;5278;42.656;23.374;2024-02-23T02:33:27;94269.47;;;8.09;75.89
10462;BME280;5278;42.656;23.374;2024-02-23T02:35:54;94287.72;;;8.16;75.69
10462;BME280;5278;42.656;23.374;2024-02-23T02:38:20;94267.16;;;8.14;75.49
10462;BME280;5278;42.656;23.374;2024-02-23T02:40:47;94273.75;;;8.25;75.29
10462;BME280;5278;42.656;23.374;2024-02-23T02:43:15;94273.78;;;8.17;75.57
10462;BME280;5278;42.656;23.374;2024-02-23T02:45:42;94280.91;;;8.15;75.57
10462;BME280;5278;42.656;23.374;2024-02-23T02:48:09;94293.19;;;8.13;75.79
10462;BME280;5278;42.656;23.374;2024-02-23T02:50:36;94279.66;;;8.03;75.92
10462;BME280;5278;42.656;23.374;2024-02-23T02:53:02;94293.50;;;8.18;76.08
10462;BME280;5278;42.656;23.374;2024-02-23T02:55:29;94293.50;;;8.18;76.15
10462;BME280;5278;42.656;23.374;2024-02-23T02:57:56;94282.53;;;8.16;75.82
10462;BME280;5278;42.656;23.374;2024-02-23T03:00:24;94282.53;;;8.16;76.16
10462;BME280;5278;42.656;23.374;2024-02-23T03:02:51;94277.72;;;8.05;76.20
10462;BME280;5278;42.656;23.374;2024-02-23T03:05:17;94254.97;;;7.37;76.49
10462;BME280;5278;42.656;23.374;2024-02-23T03:07:44;94285.47;;;8.05;76.70
10462;BME280;5278;42.656;23.374;2024-02-23T03:10:11;94277.25;;;8.01;76.66
10462;BME280;5278;42.656;23.374;2024-02-23T03:12:38;94278.44;;;7.91;77.15
10462;BME280;5278;42.656;23.374;2024-02-23T03:15:05;94288.78;;;7.83;77.44
10462;BME280;5278;42.656;23.374;2024-02-23T03:17:34;94293.31;;;7.81;77.63
10462;BME280;5278;42.656;23.374;2024-02-23T03:20:00;94297.69;;;7.80;78.04
10462;BME280;5278;42.656;23.374;2024-02-23T03:22:27;94310.13;;;7.85;77.63
10462;BME280;5278;42.656;23.374;2024-02-23T03:24:54;94299.28;;;7.89;77.40
10462;BME280;5278;42.656;23.374;2024-02-23T03:27:28;94292.97;;;7.92;77.11
10462;BME280;5278;42.656;23.374;2024-02-23T03:29:55;94300.88;;;7.90;77.69
10462;BME280;5278;42.656;23.374;2024-02-23T03:32:21;94298.63;;;7.87;77.95
10462;BME280;5278;42.656;23.374;2024-02-23T03:34:49;94273.09;;;7.84;77.96
10462;BME280;5278;42.656;23.374;2024-02-23T03:37:16;94283.09;;;7.87;77.83
10462;BME280;5278;42.656;23.374;2024-02-23T03:39:43;94293.94;;;7.83;78.22
10462;BME280;5278;42.656;23.374;2024-02-23T03:42:09;94298.81;;;7.77;78.15
10462;BME280;5278;42.656;23.374;2024-02-23T03:44:39;94303.97;;;7.77;78.60
10462;BME280;5278;42.656;23.374;2024-02-23T03:47:09;94284.28;;;7.76;78.27
10462;BME280;5278;42.656;23.374;2024-02-23T03:49:35;94285.25;;;7.75;78.54
10462;BME280;5278;42.656;23.374;2024-02-23T03:52:04;94301.72;;;7.74;79.02
10462;BME280;5278;42.656;23.374;2024-02-23T03:54:31;94309.50;;;7.74;78.90
10462;BME280;5278;42.656;23.374;2024-02-23T03:56:57;94296.22;;;7.77;78.70
10462;BME280;5278;42.656;23.374;2024-02-23T03:59:24;94292.81;;;7.85;78.61
10462;BME280;5278;42.656;23.374;2024-02-23T04:01:51;94294.13;;;7.81;78.46
10462;BME280;5278;42.656;23.374;2024-02-23T04:04:18;94293.00;;;7.75;78.91
10462;BME280;5278;42.656;23.374;2024-02-23T04:06:44;94293.13;;;7.82;78.87
10462;BME280;5278;42.656;23.374;2024-02-23T04:09:12;94292.16;;;7.83;78.81
10462;BME280;5278;42.656;23.374;2024-02-23T04:11:39;94289.28;;;7.86;78.95
10462;BME280;5278;42.656;23.374;2024-02-23T04:14:06;94285.22;;;7.92;78.63
10462;BME280;5278;42.656;23.374;2024-02-23T04:16:32;94293.28;;;7.97;78.59
10462;BME280;5278;42.656;23.374;2024-02-23T04:18:59;94313.28;;;8.03;77.80
10462;BME280;5278;42.656;23.374;2024-02-23T04:21:26;94305.22;;;8.06;78.07
10462;BME280;5278;42.656;23.374;2024-02-23T04:23:52;94302.13;;;8.10;77.79
10462;BME280;5278;42.656;23.374;2024-02-23T04:26:20;94296.75;;;8.12;77.50
10462;BME280;5278;42.656;23.374;2024-02-23T04:28:47;94297.59;;;8.04;78.02
10462;BME280;5278;42.656;23.374;2024-02-23T04:31:14;94286.81;;;7.93;78.02
10462;BME280;5278;42.656;23.374;2024-02-23T04:33:41;94306.75;;;7.76;78.82
10462;BME280;5278;42.656;23.374;2024-02-23T04:36:08;94303.50;;;7.74;79.28
10462;BME280;5278;42.656;23.374;2024-02-23T04:38:34;94313.03;;;7.73;79.28
10462;BME280;5278;42.656;23.374;2024-02-23T04:41:02;94309.34;;;7.76;79.04
10462;BME280;5278;42.656;23.374;2024-02-23T04:43:31;94304.28;;;7.83;78.84
10462;BME280;5278;42.656;23.374;2024-02-23T04:45:58;94313.69;;;7.75;78.87
10462;BME280;5278;42.656;23.374;2024-02-23T04:48:24;94295.94;;;7.64;78.73
10462;BME280;5278;42.656;23.374;2024-02-23T04:50:51;94317.59;;;7.63;79.24
10462;BME280;5278;42.656;23.374;2024-02-23T04:53:18;94321.13;;;7.62;79.31
10462;BME280;5278;42.656;23.374;2024-02-23T04:55:44;94310.47;;;7.57;79.31
10462;BME280;5278;42.656;23.374;2024-02-23T04:58:11;94312.44;;;7.39;80.44
10462;BME280;5278;42.656;23.374;2024-02-23T05:00:39;94314.06;;;7.40;80.31
10462;BME280;5278;42.656;23.374;2024-02-23T05:03:06;94328.59;;;7.41;80.17
10462;BME280;5278;42.656;23.374;2024-02-23T05:05:33;94304.19;;;7.44;80.32
10462;BME280;5278;42.656;23.374;2024-02-23T05:07:59;94305.34;;;7.49;79.93
10462;BME280;5278;42.656;23.374;2024-02-23T05:10:26;94306.63;;;7.45;79.79
10462;BME280;5278;42.656;23.374;2024-02-23T05:12:53;94328.94;;;7.46;79.75
10462;BME280;5278;42.656;23.374;2024-02-23T05:15:20;94328.09;;;7.38;80.07
10462;BME280;5278;42.656;23.374;2024-02-23T05:17:48;94320.69;;;7.34;80.33
10462;BME280;5278;42.656;23.374;2024-02-23T05:20:15;94317.44;;;7.32;80.64
10462;BME280;5278;42.656;23.374;2024-02-23T05:22:42;94337.31;;;7.48;80.22
10462;BME280;5278;42.656;23.374;2024-02-23T05:25:08;94332.31;;;7.55;80.10
10462;BME280;5278;42.656;23.374;2024-02-23T05:27:35;94348.75;;;7.70;79.96
10462;BME280;5278;42.656;23.374;2024-02-23T05:30:03;94334.69;;;7.72;79.64
10462;BME280;5278;42.656;23.374;2024-02-23T05:32:30;94336.06;;;8.07;78.77
10462;BME280;5278;42.656;23.374;2024-02-23T05:34:58;94331.31;;;8.35;76.83
10462;BME280;5278;42.656;23.374;2024-02-23T05:37:25;94330.34;;;8.67;75.95
10462;BME280;5278;42.656;23.374;2024-02-23T05:39:52;94325.88;;;8.84;75.44
10462;BME280;5278;42.656;23.374;2024-02-23T05:42:19;94331.72;;;9.31;73.87
10462;BME280;5278;42.656;23.374;2024-02-23T05:44:46;94336.09;;;9.68;70.98
10462;BME280;5278;42.656;23.374;2024-02-23T05:47:14;94343.75;;;9.99;69.87
10462;BME280;5278;42.656;23.374;2024-02-23T05:49:40;94337.97;;;10.41;67.87
10462;BME280;5278;42.656;23.374;2024-02-23T05:52:09;94346.44;;;10.79;65.48
10462;BME280;5278;42.656;23.374;2024-02-23T05:54:35;94349.63;;;11.17;63.81
10462;BME280;5278;42.656;23.374;2024-02-23T05:57:03;94349.09;;;11.64;62.47
10462;BME280;5278;42.656;23.374;2024-02-23T05:59:30;94343.28;;;12.18;60.05
10462;BME280;5278;42.656;23.374;2024-02-23T06:01:57;94336.94;;;12.68;57.31
10462;BME280;5278;42.656;23.374;2024-02-23T06:04:24;94336.81;;;12.89;55.09
10462;BME280;5278;42.656;23.374;2024-02-23T06:06:51;94345.31;;;13.11;54.83
10462;BME280;5278;42.656;23.374;2024-02-23T06:09:19;94348.84;;;13.44;55.32
10462;BME280;5278;42.656;23.374;2024-02-23T06:11:46;94330.97;;;13.87;52.91
10462;BME280;5278;42.656;23.374;2024-02-23T06:14:12;94347.41;;;14.27;50.95
10462;BME280;5278;42.656;23.374;2024-02-23T06:16:39;94351.94;;;14.71;48.88
10462;BME280;5278;42.656;23.374;2024-02-23T06:19:06;94354.03;;;15.07;46.70
10462;BME280;5278;42.656;23.374;2024-02-23T06:21:33;94354.91;;;15.32;46.60
10462;BME280;5278;42.656;23.374;2024-02-23T06:24:00;94337.13;;;15.79;45.09
10462;BME280;5278;42.656;23.374;2024-02-23T06:26:29;94355.44;;;16.28;43.60
10462;BME280;5278;42.656;23.374;2024-02-23T06:28:55;94352.13;;;16.58;42.42
10462;BME280;5278;42.656;23.374;2024-02-23T06:31:22;94332.97;;;16.75;42.29
10462;BME280;5278;42.656;23.374;2024-02-23T06:33:49;94349.09;;;16.97;41.22
10462;BME280;5278;42.656;23.374;2024-02-23T06:36:17;94334.06;;;16.86;40.75
10462;BME280;5278;42.656;23.374;2024-02-23T06:38:43;94343.91;;;16.91;40.49
10462;BME280;5278;42.656;23.374;2024-02-23T06:41:11;94352.34;;;17.11;40.79
10462;BME280;5278;42.656;23.374;2024-02-23T06:43:39;94344.66;;;17.28;40.38
10462;BME280;5278;42.656;23.374;2024-02-23T06:46:06;94347.97;;;17.53;39.85
10462;BME280;5278;42.656;23.374;2024-02-23T06:48:34;94347.28;;;17.87;38.48
10462;BME280;5278;42.656;23.374;2024-02-23T06:51:00;94340.34;;;18.28;37.39
10462;BME280;5278;42.656;23.374;2024-02-23T06:53:28;94353.38;;;18.46;36.98
10462;BME280;5278;42.656;23.374;2024-02-23T06:55:54;94341.56;;;18.83;36.02
10462;BME280;5278;42.656;23.374;2024-02-23T06:58:21;94342.25;;;18.90;35.53
10462;BME280;5278;42.656;23.374;2024-02-23T07:00:49;94347.28;;;19.32;35.31
10462;BME280;5278;42.656;23.374;2024-02-23T07:03:16;94349.34;;;19.87;34.83
10462;BME280;5278;42.656;23.374;2024-02-23T07:05:43;94339.28;;;20.17;34.17
10462;BME280;5278;42.656;23.374;2024-02-23T07:08:10;94334.94;;;20.83;32.82
10462;BME280;5278;42.656;23.374;2024-02-23T07:10:37;94295.34;;;21.04;31.85
10462;BME280;5278;42.656;23.374;2024-02-23T07:13:04;94348.56;;;21.88;31.36
10462;BME280;5278;42.656;23.374;2024-02-23T07:15:32;94352.34;;;22.24;30.50
10462;BME280;5278;42.656;23.374;2024-02-23T07:18:00;94348.78;;;22.83;29.78
10462;BME280;5278;42.656;23.374;2024-02-23T07:20:27;94325.06;;;23.08;29.31
10462;BME280;5278;42.656;23.374;2024-02-23T07:22:53;94331.09;;;23.55;28.58
10462;BME280;5278;42.656;23.374;2024-02-23T07:25:20;94318.63;;;23.51;28.03
10462;BME280;5278;42.656;23.374;2024-02-23T07:27:47;94277.28;;;22.93;28.48
10462;BME280;5278;42.656;23.374;2024-02-23T07:30:15;94323.72;;;23.00;29.17
10462;BME280;5278;42.656;23.374;2024-02-23T07:32:43;94322.13;;;23.04;29.02
10462;BME280;5278;42.656;23.374;2024-02-23T07:35:11;94324.88;;;23.25;29.06
10462;BME280;5278;42.656;23.374;2024-02-23T07:37:38;94316.50;;;23.68;28.52
10462;BME280;5278;42.656;23.374;2024-02-23T07:40:05;94317.84;;;24.01;27.96
10462;BME280;5278;42.656;23.374;2024-02-23T07:42:33;94313.34;;;24.57;27.15
10462;BME280;5278;42.656;23.374;2024-02-23T07:45:01;94329.03;;;24.54;27.24
10462;BME280;5278;42.656;23.374;2024-02-23T07:47:29;94329.00;;;24.69;27.30
10462;BME280;5278;42.656;23.374;2024-02-23T07:49:56;94312.25;;;24.68;27.11
10462;BME280;5278;42.656;23.374;2024-02-23T07:52:24;94289.22;;;24.18;27.93
10462;BME280;5278;42.656;23.374;2024-02-23T07:54:51;94334.53;;;24.98;27.58
10462;BME280;5278;42.656;23.374;2024-02-23T07:57:18;94328.44;;;25.56;26.75
10462;BME280;5278;42.656;23.374;2024-02-23T07:59:45;94327.78;;;26.24;26.02
10462;BME280;5278;42.656;23.374;2024-02-23T08:02:11;94332.00;;;27.11;24.77
10462;BME280;5278;42.656;23.374;2024-02-23T08:04:38;94310.75;;;27.86;24.04
10462;BME280;5278;42.656;23.374;2024-02-23T08:07:05;94311.00;;;28.54;23.63
10462;BME280;5278;42.656;23.374;2024-02-23T08:09:33;94301.47;;;28.94;23.36
10462;BME280;5278;42.656;23.374;2024-02-23T08:12:00;94315.38;;;29.37;23.00
10462;BME280;5278;42.656;23.374;2024-02-23T08:14:27;94315.78;;;29.80;21.73
10462;BME280;5278;42.656;23.374;2024-02-23T08:16:53;94291.84;;;29.62;22.03
10462;BME280;5278;42.656;23.374;2024-02-23T08:19:20;94297.63;;;29.91;21.82
10462;BME280;5278;42.656;23.374;2024-02-23T08:21:47;94294.66;;;30.15;21.65
10462;BME280;5278;42.656;23.374;2024-02-23T08:24:13;94318.13;;;29.73;22.02
10462;BME280;5278;42.656;23.374;2024-02-23T08:26:41;94328.59;;;29.34;22.28
10462;BME280;5278;42.656;23.374;2024-02-23T08:29:08;94303.09;;;29.09;22.55
10462;BME280;5278;42.656;23.374;2024-02-23T08:31:35;94298.13;;;27.92;24.19
10462;BME280;5278;42.656;23.374;2024-02-23T08:34:01;94320.34;;;26.49;25.29
10462;BME280;5278;42.656;23.374;2024-02-23T08:36:28;94304.78;;;24.85;27.25
10462;BME280;5278;42.656;23.374;2024-02-23T08:38:55;94311.47;;;23.77;28.62
10462;BME280;5278;42.656;23.374;2024-02-23T08:41:22;94316.03;;;23.04;29.65
10462;BME280;5278;42.656;23.374;2024-02-23T08:43:50;94315.78;;;22.58;30.34
10462;BME280;5278;42.656;23.374;2024-02-23T08:46:18;94328.38;;;22.04;31.72
10462;BME280;5278;42.656;23.374;2024-02-23T08:48:46;94321.34;;;21.61;32.13
10462;BME280;5278;42.656;23.374;2024-02-23T08:51:13;94313.44;;;21.39;32.68
10462;BME280;5278;42.656;23.374;2024-02-23T08:53:40;94327.09;;;21.10;33.44
10462;BME280;5278;42.656;23.374;2024-02-23T08:56:07;94319.22;;;20.93;33.12
10462;BME280;5278;42.656;23.374;2024-02-23T08:58:34;94321.28;;;21.83;32.40
10462;BME280;5278;42.656;23.374;2024-02-23T09:01:03;94321.72;;;23.38;30.12
10462;BME280;5278;42.656;23.374;2024-02-23T09:03:30;94307.81;;;25.28;27.75
10462;BME280;5278;42.656;23.374;2024-02-23T09:05:57;94310.22;;;25.79;26.57
10462;BME280;5278;42.656;23.374;2024-02-23T09:08:23;94300.41;;;26.71;25.10
10462;BME280;5278;42.656;23.374;2024-02-23T09:10:50;94301.69;;;28.19;23.75
10462;BME280;5278;42.656;23.374;2024-02-23T09:13:17;94294.94;;;28.87;22.81
10462;BME280;5278;42.656;23.374;2024-02-23T09:15:43;94304.94;;;29.63;22.27
10462;BME280;5278;42.656;23.374;2024-02-23T09:18:11;94291.22;;;30.67;21.25
10462;BME280;5278;42.656;23.374;2024-02-23T09:20:38;94296.38;;;31.34;20.21
10462;BME280;5278;42.656;23.374;2024-02-23T09:23:05;94302.34;;;31.71;19.79
10462;BME280;5278;42.656;23.374;2024-02-23T09:25:31;94300.44;;;31.63;19.71
10462;BME280;5278;42.656;23.374;2024-02-23T09:27:58;94288.09;;;31.05;19.76
10462;BME280;5278;42.656;23.374;2024-02-23T09:30:25;94231.88;;;30.16;20.24
10462;BME280;5278;42.656;23.374;2024-02-23T09:32:52;94312.50;;;30.42;20.47
10462;BME280;5278;42.656;23.374;2024-02-23T09:35:21;94300.34;;;30.58;20.69
10462;BME280;5278;42.656;23.374;2024-02-23T09:37:47;94279.19;;;30.12;20.30
10462;BME280;5278;42.656;23.374;2024-02-23T09:40:15;94294.53;;;29.48;21.01
10462;BME280;5278;42.656;23.374;2024-02-23T09:42:42;94296.81;;;28.86;21.31
10462;BME280;5278;42.656;23.374;2024-02-23T09:45:08;94301.09;;;28.55;21.89
10462;BME280;5278;42.656;23.374;2024-02-23T09:47:37;94301.66;;;27.87;22.10
10462;BME280;5278;42.656;23.374;2024-02-23T09:50:05;94302.16;;;27.09;23.03
10462;BME280;5278;42.656;23.374;2024-02-23T09:52:34;94295.38;;;27.17;23.42
10462;BME280;5278;42.656;23.374;2024-02-23T09:55:00;94305.94;;;27.69;22.42
10462;BME280;5278;42.656;23.374;2024-02-23T09:57:29;94292.06;;;28.37;21.77
10462;BME280;5278;42.656;23.374;2024-02-23T09:59:55;94283.84;;;29.48;20.93
10462;BME280;5278;42.656;23.374;2024-02-23T10:02:22;94279.16;;;30.34;20.10
10462;BME280;5278;42.656;23.374;2024-02-23T10:04:49;94287.63;;;31.03;19.34
10462;BME280;5278;42.656;23.374;2024-02-23T10:07:17;94278.94;;;31.97;18.49
10462;BME280;5278;42.656;23.374;2024-02-23T10:09:46;94263.28;;;31.90;18.11
10462;BME280;5278;42.656;23.374;2024-02-23T10:12:13;94275.41;;;32.48;17.95
10462;BME280;5278;42.656;23.374;2024-02-23T10:14:41;94258.97;;;32.96;17.48
10462;BME280;5278;42.656;23.374;2024-02-23T10:17:08;94260.47;;;33.73;16.93
10462;BME280;5278;42.656;23.374;2024-02-23T10:19:34;94274.94;;;34.10;16.33
10462;BME280;5278;42.656;23.374;2024-02-23T10:22:01;94256.88;;;32.72;17.37
10462;BME280;5278;42.656;23.374;2024-02-23T10:24:28;94249.50;;;32.90;17.45
10462;BME280;5278;42.656;23.374;2024-02-23T10:26:56;94261.72;;;33.76;17.02
10462;BME280;5278;42.656;23.374;2024-02-23T10:29:23;94257.47;;;34.07;16.74
10462;BME280;5278;42.656;23.374;2024-02-23T10:31:51;94254.03;;;34.07;16.37
10462;BME280;5278;42.656;23.374;2024-02-23T10:34:19;94250.59;;;33.98;15.97
10462;BME280;5278;42.656;23.374;2024-02-23T10:36:46;94245.66;;;34.00;16.48
10462;BME280;5278;42.656;23.374;2024-02-23T10:39:17;94248.28;;;33.88;16.02
10462;BME280;5278;42.656;23.374;2024-02-23T10:41:47;94250.44;;;34.48;16.22
10462;BME280;5278;42.656;23.374;2024-02-23T10:44:16;94236.25;;;35.08;15.35
10462;BME280;5278;42.656;23.374;2024-02-23T10:46:44;94234.38;;;34.51;15.55
10462;BME280;5278;42.656;23.374;2024-02-23T10:49:12;94229.94;;;34.80;15.08
10462;BME280;5278;42.656;23.374;2024-02-23T10:51:42;94175.56;;;34.57;15.31
10462;BME280;5278;42.656;23.374;2024-02-23T10:54:19;94223.31;;;35.02;15.44
10462;BME280;5278;42.656;23.374;2024-02-23T10:56:48;94218.00;;;35.66;16.45
10462;BME280;5278;42.656;23.374;2024-02-23T10:59:16;94170.50;;;35.28;17.09
10462;BME280;5278;42.656;23.374;2024-02-23T11:01:45;94193.00;;;35.32;15.29
10462;BME280;5278;42.656;23.374;2024-02-23T11:04:14;94202.38;;;34.86;17.47
10462;BME280;5278;42.656;23.374;2024-02-23T11:06:42;94202.59;;;34.93;17.30
10462;BME280;5278;42.656;23.374;2024-02-23T11:09:12;94201.69;;;35.38;16.17
10462;BME280;5278;42.656;23.374;2024-02-23T11:11:39;94199.09;;;35.17;15.77
10462;BME280;5278;42.656;23.374;2024-02-23T11:14:07;94200.13;;;34.76;15.80
10462;BME280;5278;42.656;23.374;2024-02-23T11:16:39;94111.09;;;33.98;15.32
10462;BME280;5278;42.656;23.374;2024-02-23T11:19:08;94187.47;;;34.56;16.09
10462;BME280;5278;42.656;23.374;2024-02-23T11:21:35;94185.03;;;34.87;16.83
10462;BME280;5278;42.656;23.374;2024-02-23T11:24:03;94156.44;;;34.62;15.90
10462;BME280;5278;42.656;23.374;2024-02-23T11:26:30;94178.94;;;33.88;16.08
10462;BME280;5278;42.656;23.374;2024-02-23T11:28:57;94194.00;;;33.48;16.50
10462;BME280;5278;42.656;23.374;2024-02-23T11:31:25;94180.28;;;32.44;17.45
10462;BME280;5278;42.656;23.374;2024-02-23T11:33:54;94127.00;;;31.22;18.11
10462;BME280;5278;42.656;23.374;2024-02-23T11:36:24;94176.00;;;30.79;18.08
10462;BME280;5278;42.656;23.374;2024-02-23T11:38:54;94169.53;;;30.72;18.71
10462;BME280;5278;42.656;23.374;2024-02-23T11:41:23;94168.91;;;30.84;18.02
10462;BME280;5278;42.656;23.374;2024-02-23T11:43:50;94174.47;;;30.96;18.74
10462;BME280;5278;42.656;23.374;2024-02-23T11:46:17;94174.94;;;30.89;17.86
10462;BME280;5278;42.656;23.374;2024-02-23T11:48:44;94176.28;;;30.61;18.51
10462;BME280;5278;42.656;23.374;2024-02-23T11:51:13;94185.66;;;29.66;18.46
10462;BME280;5278;42.656;23.374;2024-02-23T11:53:41;94187.00;;;28.37;19.74
10462;BME280;5278;42.656;23.374;2024-02-23T11:56:08;94176.16;;;27.31;21.22
10462;BME280;5278;42.656;23.374;2024-02-23T11:58:36;94172.19;;;26.91;21.50
10462;BME280;5278;42.656;23.374;2024-02-23T12:01:03;94175.09;;;27.13;22.10
10462;BME280;5278;42.656;23.374;2024-02-23T12:03:32;94159.19;;;27.40;21.21
10462;BME280;5278;42.656;23.374;2024-02-23T12:05:59;94163.91;;;27.81;20.46
10462;BME280;5278;42.656;23.374;2024-02-23T12:08:30;94153.63;;;28.20;20.88
10462;BME280;5278;42.656;23.374;2024-02-23T12:11:03;94142.22;;;28.56;20.36
10462;BME280;5278;42.656;23.374;2024-02-23T12:13:30;94139.44;;;28.20;20.10
10462;BME280;5278;42.656;23.374;2024-02-23T12:15:57;94145.09;;;27.72;20.91
10462;BME280;5278;42.656;23.374;2024-02-23T12:18:24;94145.38;;;27.71;22.10
10462;BME280;5278;42.656;23.374;2024-02-23T12:20:52;94148.31;;;27.37;21.43
10462;BME280;5278;42.656;23.374;2024-02-23T12:23:18;94137.69;;;26.76;21.80
10462;BME280;5278;42.656;23.374;2024-02-23T12:25:53;94143.41;;;26.22;23.54
10462;BME280;5278;42.656;23.374;2024-02-23T12:28:21;94141.97;;;25.77;23.62
10462;BME280;5278;42.656;23.374;2024-02-23T12:30:58;94138.75;;;25.46;24.05
10462;BME280;5278;42.656;23.374;2024-02-23T12:33:27;94139.06;;;25.39;24.12
10462;BME280;5278;42.656;23.374;2024-02-23T12:35:54;94141.66;;;25.15;24.44
10462;BME280;5278;42.656;23.374;2024-02-23T12:38:21;94145.72;;;25.03;24.34
10462;BME280;5278;42.656;23.374;2024-02-23T12:40:48;94145.53;;;24.84;24.28
10462;BME280;5278;42.656;23.374;2024-02-23T12:43:17;94126.41;;;24.28;24.83
10462;BME280;5278;42.656;23.374;2024-02-23T12:45:46;94127.25;;;24.03;25.55
10462;BME280;5278;42.656;23.374;2024-02-23T12:48:14;94125.97;;;23.80;24.39
10462;BME280;5278;42.656;23.374;2024-02-23T12:50:41;94115.13;;;23.46;26.11
10462;BME280;5278;42.656;23.374;2024-02-23T12:53:08;94110.63;;;22.96;26.45
10462;BME280;5278;42.656;23.374;2024-02-23T12:55:35;94126.97;;;22.73;27.19
10462;BME280;5278;42.656;23.374;2024-02-23T12:58:03;94119.00;;;22.68;27.21
10462;BME280;5278;42.656;23.374;2024-02-23T13:00:31;94118.44;;;22.56;27.12
10462;BME280;5278;42.656;23.374;2024-02-23T13:02:57;94126.91;;;22.53;26.47
10462;BME280;5278;42.656;23.374;2024-02-23T13:05:24;94132.13;;;22.38;26.87